createdAt,value
2022-10-21T00:01:46.698Z,12.69
2022-10-21T00:04:13.311Z,12.67
2022-10-21T00:06:39.972Z,12.67
2022-10-21T00:09:06.669Z,12.65
2022-10-21T00:11:33.321Z,12.65
2022-10-21T00:14:01.002Z,12.66
2022-10-21T00:16:27.649Z,12.68
2022-10-21T00:18:54.278Z,12.69
2022-10-21T00:21:22.102Z,12.68
2022-10-21T00:23:50.293Z,12.67
2022-10-21T00:26:18.422Z,12.66
2022-10-21T00:28:45.334Z,12.66
2022-10-21T00:31:13.971Z,12.66
2022-10-21T00:33:40.993Z,12.65
2022-10-21T00:36:14.787Z,12.63
2022-10-21T00:38:44.283Z,12.62
2022-10-21T00:41:11.739Z,12.61
2022-10-21T00:43:57.062Z,12.59
2022-10-21T00:46:45.065Z,12.58
2022-10-21T00:49:24.688Z,12.58
2022-10-21T00:51:56.537Z,12.58
2022-10-21T00:54:24.911Z,12.60
2022-10-21T00:56:54.654Z,12.60
2022-10-21T00:59:23.972Z,12.61
2022-10-21T01:01:50.953Z,12.61
2022-10-21T01:04:17.634Z,12.63
2022-10-21T01:06:45.367Z,12.64
2022-10-21T01:09:13.827Z,12.67
2022-10-21T01:11:46.565Z,12.66
2022-10-21T01:14:28.350Z,12.68
2022-10-21T01:17:26.623Z,12.67
2022-10-21T01:20:20.813Z,12.69
2022-10-21T01:22:56.777Z,12.68
2022-10-21T01:25:50.837Z,12.69
2022-10-21T01:28:35.778Z,12.69
2022-10-21T01:31:20.338Z,12.68
2022-10-21T01:33:59.776Z,12.69
2022-10-21T01:36:40.060Z,12.67
2022-10-21T01:39:27.098Z,12.66
2022-10-21T01:41:53.725Z,12.68
2022-10-21T01:44:30.139Z,12.67
2022-10-21T01:47:06.722Z,12.69
2022-10-21T01:49:41.347Z,12.68
2022-10-21T01:52:08.802Z,12.69
2022-10-21T01:54:39.949Z,12.71
2022-10-21T01:57:09.230Z,12.71
2022-10-21T01:59:37.562Z,12.72
2022-10-21T02:02:07.247Z,12.71
2022-10-21T02:04:36.253Z,12.72
2022-10-21T02:07:06.114Z,12.72
2022-10-21T02:12:05.664Z,12.70
2022-10-21T02:14:41.921Z,12.70
2022-10-21T02:17:12.862Z,12.71
2022-10-21T02:19:39.704Z,12.71
2022-10-21T02:22:10.187Z,12.70
2022-10-21T02:24:51.261Z,12.68
2022-10-21T02:27:18.606Z,12.68
2022-10-21T02:29:47.260Z,12.66
2022-10-21T02:32:13.804Z,12.66
2022-10-21T02:34:49.259Z,12.65
2022-10-21T02:40:16.409Z,12.64
2022-10-21T02:43:02.730Z,12.65
2022-10-21T02:45:29.384Z,12.65
2022-10-21T02:47:56.199Z,12.64
2022-10-21T02:50:22.816Z,12.65
2022-10-21T02:52:49.441Z,12.65
2022-10-21T02:55:16.383Z,12.64
2022-10-21T02:57:43.060Z,12.65
2022-10-21T03:00:10.284Z,12.64
2022-10-21T03:02:37.012Z,12.64
2022-10-21T03:05:04.049Z,12.64
2022-10-21T03:07:30.659Z,12.64
2022-10-21T03:09:57.283Z,12.66
2022-10-21T03:12:24.960Z,12.66
2022-10-21T03:14:51.575Z,12.67
2022-10-21T03:17:21.550Z,12.67
2022-10-21T03:19:51.014Z,12.67
2022-10-21T03:22:17.669Z,12.67
2022-10-21T03:24:44.333Z,12.69
2022-10-21T03:27:11.836Z,12.66
2022-10-21T03:29:38.430Z,12.64
2022-10-21T03:32:05.244Z,12.64
2022-10-21T03:34:31.857Z,12.62
2022-10-21T03:36:58.630Z,12.62
2022-10-21T03:39:25.247Z,12.62
2022-10-21T03:41:52.881Z,12.63
2022-10-21T03:44:19.502Z,12.63
2022-10-21T03:46:46.082Z,12.65
2022-10-21T03:49:21.162Z,12.63
2022-10-21T03:51:48.589Z,12.64
2022-10-21T03:54:15.485Z,12.65
2022-10-21T03:56:42.225Z,12.66
2022-10-21T03:59:09.125Z,12.66
2022-10-21T04:01:36.284Z,12.66
2022-10-21T04:04:03.523Z,12.67
2022-10-21T04:06:30.479Z,12.68
2022-10-21T04:08:57.129Z,12.63
2022-10-21T04:11:23.791Z,12.58
2022-10-21T04:13:50.585Z,12.51
2022-10-21T04:16:20.486Z,12.47
2022-10-21T04:18:47.778Z,12.45
2022-10-21T04:21:14.763Z,12.43
2022-10-21T04:23:41.842Z,12.42
2022-10-21T04:26:09.482Z,12.41
2022-10-21T04:28:36.546Z,12.42
2022-10-21T04:31:03.880Z,12.42
2022-10-21T04:33:30.554Z,12.41
2022-10-21T04:35:58.941Z,12.43
2022-10-21T04:38:26.670Z,12.44
2022-10-21T04:41:01.523Z,12.45
2022-10-21T04:43:29.027Z,12.47
2022-10-21T04:45:56.106Z,12.48
2022-10-21T04:48:23.344Z,12.48
2022-10-21T04:50:53.782Z,12.50
2022-10-21T04:53:21.752Z,12.51
2022-10-21T04:55:54.779Z,12.54
2022-10-21T04:58:22.391Z,12.56
2022-10-21T05:00:52.740Z,12.56
2022-10-21T05:03:20.338Z,12.58
2022-10-21T05:05:51.155Z,12.60
2022-10-21T05:08:20.161Z,12.61
2022-10-21T05:10:47.419Z,12.63
2022-10-21T05:13:14.613Z,12.64
2022-10-21T05:15:41.264Z,12.66
2022-10-21T05:18:07.917Z,12.67
2022-10-21T05:20:34.607Z,12.67
2022-10-21T05:23:01.251Z,12.66
2022-10-21T05:25:31.692Z,12.66
2022-10-21T05:28:01.905Z,12.65
2022-10-21T05:30:28.674Z,12.64
2022-10-21T05:32:55.350Z,12.64
2022-10-21T05:35:21.962Z,12.64
2022-10-21T05:37:48.629Z,12.65
2022-10-21T05:40:15.319Z,12.64
2022-10-21T05:42:42.017Z,12.62
2022-10-21T05:45:09.505Z,12.61
2022-10-21T05:47:36.118Z,12.60
2022-10-21T05:50:02.864Z,12.60
2022-10-21T05:52:29.475Z,12.59
2022-10-21T05:54:56.140Z,12.60
2022-10-21T05:57:22.821Z,12.60
2022-10-21T05:59:49.401Z,12.61
2022-10-21T06:02:16.115Z,12.60
2022-10-21T06:04:42.823Z,12.60
2022-10-21T06:07:09.701Z,12.60
2022-10-21T06:09:37.839Z,12.57
2022-10-21T06:12:04.788Z,12.57
2022-10-21T06:14:31.430Z,12.57
2022-10-21T06:16:58.115Z,12.55
2022-10-21T06:19:24.770Z,12.53
2022-10-21T06:21:51.442Z,12.53
2022-10-21T06:24:18.042Z,12.57
2022-10-21T06:26:44.649Z,12.57
2022-10-21T06:29:14.943Z,12.58
2022-10-21T06:31:41.552Z,12.61
2022-10-21T06:34:09.735Z,12.62
2022-10-21T06:36:38.291Z,12.62
2022-10-21T06:39:06.251Z,12.64
2022-10-21T06:41:32.885Z,12.64
2022-10-21T06:43:59.527Z,12.64
2022-10-21T06:46:26.795Z,12.64
2022-10-21T06:48:53.461Z,12.65
2022-10-21T06:51:23.380Z,12.66
2022-10-21T06:53:55.617Z,12.66
2022-10-21T06:56:23.154Z,12.66
2022-10-21T06:58:50.951Z,12.65
2022-10-21T07:01:34.427Z,12.64
2022-10-21T07:04:03.584Z,12.63
2022-10-21T07:06:30.634Z,12.64
2022-10-21T07:08:58.568Z,12.65
2022-10-21T07:11:26.627Z,12.67
2022-10-21T07:13:53.722Z,12.68
2022-10-21T07:16:27.093Z,12.70
2022-10-21T07:18:55.206Z,12.73
2022-10-21T07:21:24.876Z,12.74
2022-10-21T07:23:53.152Z,12.74
2022-10-21T07:26:21.511Z,12.77
2022-10-21T07:28:48.677Z,12.78
2022-10-21T07:31:19.977Z,12.80
2022-10-21T07:33:47.230Z,12.84
2022-10-21T07:36:18.886Z,12.86
2022-10-21T07:38:47.324Z,12.89
2022-10-21T07:41:23.094Z,12.90
2022-10-21T07:43:50.567Z,12.91
2022-10-21T07:46:18.278Z,12.90
2022-10-21T07:48:45.001Z,12.92
2022-10-21T07:51:15.566Z,12.93
2022-10-21T07:53:42.760Z,12.94
2022-10-21T07:56:19.091Z,12.96
2022-10-21T07:58:48.735Z,12.98
2022-10-21T08:01:17.118Z,13.02
2022-10-21T08:03:44.358Z,13.03
2022-10-21T08:06:13.685Z,13.06
2022-10-21T08:08:40.682Z,13.09
2022-10-21T08:11:08.246Z,13.14
2022-10-21T08:13:35.879Z,13.19
2022-10-21T08:16:06.731Z,13.20
2022-10-21T08:18:33.937Z,13.21
2022-10-21T08:21:03.396Z,13.22
2022-10-21T08:23:30.656Z,13.23
2022-10-21T08:26:00.698Z,13.24
2022-10-21T08:28:29.545Z,13.25
2022-10-21T08:31:15.206Z,13.26
2022-10-21T08:33:43.539Z,13.26
2022-10-21T08:36:19.645Z,13.24
2022-10-21T08:38:46.737Z,13.22
2022-10-21T08:41:26.875Z,13.22
2022-10-21T08:43:58.994Z,13.23
2022-10-21T08:46:31.893Z,13.23
2022-10-21T08:49:11.193Z,13.22
2022-10-21T08:51:44.865Z,13.23
2022-10-21T08:54:22.282Z,13.23
2022-10-21T08:56:55.105Z,13.22
2022-10-21T08:59:24.987Z,13.21
2022-10-21T09:02:03.551Z,13.21
2022-10-21T09:04:54.944Z,13.22
2022-10-21T09:07:30.917Z,13.22
2022-10-21T09:10:02.912Z,13.25
2022-10-21T09:12:40.543Z,13.26
2022-10-21T09:15:18.170Z,13.28
2022-10-21T09:18:12.862Z,13.31
2022-10-21T09:21:05.643Z,13.35
2022-10-21T09:23:47.606Z,13.37
2022-10-21T09:26:30.380Z,13.38
2022-10-21T09:28:57.631Z,13.38
2022-10-21T09:31:24.367Z,13.38
2022-10-21T09:33:58.495Z,13.41
2022-10-21T09:36:38.226Z,13.44
2022-10-21T09:39:22.616Z,13.48
2022-10-21T09:41:55.484Z,13.50
2022-10-21T09:44:25.997Z,13.50
2022-10-21T09:46:54.437Z,13.49
2022-10-21T09:50:05.400Z,13.45
2022-10-21T09:52:29.266Z,13.43
2022-10-21T09:54:56.421Z,13.45
2022-10-21T09:57:48.329Z,13.47
2022-10-21T10:00:15.140Z,13.48
2022-10-21T10:02:45.464Z,13.49
2022-10-21T10:05:36.197Z,13.56
2022-10-21T10:08:24.522Z,13.68
2022-10-21T10:10:51.209Z,13.79
2022-10-21T10:13:20.530Z,13.92
2022-10-21T10:15:47.270Z,14.00
2022-10-21T10:18:23.767Z,14.09
2022-10-21T10:21:13.922Z,14.11
2022-10-21T10:23:46.255Z,14.09
2022-10-21T10:26:34.035Z,14.06
2022-10-21T10:29:16.110Z,14.03
2022-10-21T10:32:03.009Z,14.08
2022-10-21T10:34:32.397Z,14.12
2022-10-21T10:37:25.328Z,14.16
2022-10-21T10:40:00.053Z,14.12
2022-10-21T10:42:33.195Z,14.08
2022-10-21T10:45:04.246Z,14.04
2022-10-21T10:47:39.984Z,14.07
2022-10-21T10:50:45.011Z,14.24
2022-10-21T10:53:37.115Z,14.36
2022-10-21T10:56:24.141Z,14.46
2022-10-21T10:59:01.865Z,14.50
2022-10-21T11:01:35.195Z,14.60
2022-10-21T11:04:15.385Z,14.63
2022-10-21T11:06:51.117Z,14.66
2022-10-21T11:09:22.612Z,14.77
2022-10-21T11:11:54.831Z,14.88
2022-10-21T11:14:22.838Z,14.89
2022-10-21T11:17:03.127Z,14.95
2022-10-21T11:19:41.139Z,14.97
2022-10-21T11:22:36.934Z,14.97
2022-10-21T11:25:18.661Z,14.99
2022-10-21T11:27:54.055Z,15.02
2022-10-21T11:30:22.236Z,15.07
2022-10-21T11:32:54.111Z,15.05
2022-10-21T11:35:29.599Z,15.03
2022-10-21T11:38:11.321Z,14.97
2022-10-21T11:40:41.963Z,14.99
2022-10-21T11:43:30.065Z,15.03
2022-10-21T11:46:19.795Z,15.07
2022-10-21T11:49:14.494Z,15.18
2022-10-21T11:51:53.287Z,15.34
2022-10-21T11:54:53.094Z,15.48
2022-10-21T11:57:30.160Z,15.58
2022-10-21T12:00:18.047Z,15.65
2022-10-21T12:03:26.142Z,15.68
2022-10-21T12:06:04.955Z,15.63
2022-10-21T12:08:43.137Z,15.56
2022-10-21T12:11:27.977Z,15.51
2022-10-21T12:14:00.147Z,15.43
2022-10-21T12:16:31.554Z,15.35
2022-10-21T12:19:05.065Z,15.27
2022-10-21T12:21:35.783Z,15.21
2022-10-21T12:24:39.550Z,15.18
2022-10-21T12:27:35.972Z,15.13
2022-10-21T12:30:41.697Z,15.07
2022-10-21T12:33:16.996Z,15.12
2022-10-21T12:36:09.185Z,15.16
2022-10-21T12:38:44.847Z,15.20
2022-10-21T12:41:24.201Z,15.28
2022-10-21T12:44:02.991Z,15.32
2022-10-21T12:46:39.155Z,15.33
2022-10-21T12:49:32.732Z,15.35
2022-10-21T12:52:02.283Z,15.37
2022-10-21T12:54:50.845Z,15.35
2022-10-21T12:57:43.033Z,15.35
2022-10-21T13:00:15.626Z,15.31
2022-10-21T13:03:02.790Z,15.32
2022-10-21T13:05:38.337Z,15.36
2022-10-21T13:08:20.347Z,15.42
2022-10-21T13:11:08.113Z,15.43
2022-10-21T13:13:37.537Z,15.41
2022-10-21T13:16:19.707Z,15.41
2022-10-21T13:18:52.697Z,15.40
2022-10-21T13:21:29.808Z,15.36
2022-10-21T13:24:06.630Z,15.32
2022-10-21T13:26:33.336Z,15.29
2022-10-21T13:29:18.197Z,15.25
2022-10-21T13:31:45.027Z,15.23
2022-10-21T13:34:29.831Z,15.21
2022-10-21T13:36:57.651Z,15.18
2022-10-21T13:39:34.697Z,15.13
2022-10-21T13:42:05.385Z,15.11
2022-10-21T13:44:36.982Z,15.08
2022-10-21T13:47:18.528Z,15.04
2022-10-21T13:49:52.779Z,15.03
2022-10-21T13:52:19.850Z,15.04
2022-10-21T13:54:46.589Z,15.07
2022-10-21T13:57:17.928Z,15.06
2022-10-21T13:59:44.557Z,15.05
2022-10-21T14:02:24.151Z,15.02
2022-10-21T14:04:51.823Z,15.03
2022-10-21T14:07:19.543Z,15.03
2022-10-21T14:09:52.317Z,15.05
2022-10-21T14:12:32.011Z,15.07
2022-10-21T14:15:06.455Z,15.06
2022-10-21T14:17:34.433Z,15.07
2022-10-21T14:20:15.536Z,15.06
2022-10-21T14:22:48.888Z,15.08
2022-10-21T14:25:16.841Z,15.10
2022-10-21T14:27:47.167Z,15.11
2022-10-21T14:30:26.671Z,15.13
2022-10-21T14:32:53.865Z,15.17
2022-10-21T14:35:20.396Z,15.20
2022-10-21T14:37:56.169Z,15.23
2022-10-21T14:40:57.926Z,15.24
2022-10-21T14:43:38.291Z,15.24
2022-10-21T14:46:06.622Z,15.23
2022-10-21T14:48:56.157Z,15.24
2022-10-21T14:51:23.421Z,15.19
2022-10-21T14:54:02.058Z,15.14
2022-10-21T14:56:35.330Z,15.10
2022-10-21T14:59:23.994Z,15.06
2022-10-21T15:01:51.142Z,15.03
2022-10-21T15:04:39.495Z,15.02
2022-10-21T15:07:30.576Z,14.99
2022-10-21T15:10:03.346Z,15.00
2022-10-21T15:12:39.352Z,15.02
2022-10-21T15:15:42.290Z,15.03
2022-10-21T15:18:18.720Z,15.03
2022-10-21T15:21:07.373Z,15.09
2022-10-21T15:23:56.745Z,15.15
2022-10-21T15:26:34.510Z,15.21
2022-10-21T15:29:11.175Z,15.22
2022-10-21T15:31:37.817Z,15.24
2022-10-21T15:34:06.097Z,15.21
2022-10-21T15:36:32.726Z,15.15
2022-10-21T15:38:59.354Z,15.09
2022-10-21T15:41:28.720Z,15.04
2022-10-21T15:44:17.279Z,14.98
